Forside
METAR-TAF:

METAR-TAF

Lufthavne :

Winnipeg, Manitoba, Canada

Breddekreds: 49-54N, længdekreds: 097-14W, højde: 239 m

Aktuelle vejr

Denne rapport blev lavet for 19 minutter siden, kl. 23:00 UTC
Vind 7 kt fra vestsydvest, varierende mellem syd og vest
Temperatur 26°C
Fugtighed 42%
Tryk 1018 hPa
Sigt: 24.1 km
skyfri

METAR: CYWG 172300Z 24007KT 170V270 15SM SKC 26/12 A3006 RMK SLP184 DENSITY ALT 2100FT

Tid: 18:19 (23:19 UTC)

Vejrudsigter

Denne rapport blev lavet for 5 timer og 35 minutter siden, kl. 17:44 UTC
Foreløbig gælder fra 17 på 18 UTC til 18 på 18 UTC
Vind 5 kt fra vest
Sigt: 10 km
Nogle få skyer i en højde af 5000 ft
ændring
fra 17 på 18 UTC til 17 på 20 UTC
Vind 10 kt fra sydvest
ændring
fra 18 på 02 UTC til 18 på 04 UTC
Vind 8 kt fra syd

TAF: CYWG 171744Z 1718/1818 27005KT P6SM FEW050 BECMG 1718/1720 22010KT BECMG 1802/1804 18008KT RMK NXT FCST BY 180000Z

Vejrobservationer og prognoser fra mere end 4000 lufthavne (METAR og TAF).

De gule og røde prikker repræsenterer de meteorologiske stationer.

Flyt musen over at se navnet på stationen.

Så klik over at se vejr observationer og prognoser.

At skifte det kort: Klik på de grønne knapper med et sort kors for at zoome ind; på den grønne knap med en bindestreg for at zoome ud; eller på de grønne pile for tilstødende kort.


METAR-TAF: